createdAt,value
2017-05-06T00:00:07.561Z,0
2017-05-06T00:01:15.648Z,0
2017-05-06T00:02:23.739Z,0
2017-05-06T00:03:31.824Z,0
2017-05-06T00:04:39.912Z,0
2017-05-06T00:05:47.999Z,0
2017-05-06T00:06:56.087Z,0
2017-05-06T00:08:04.199Z,0
2017-05-06T00:09:12.261Z,0
2017-05-06T00:10:20.350Z,0
2017-05-06T00:11:28.436Z,0
2017-05-06T00:12:36.522Z,0
2017-05-06T00:13:44.610Z,0
2017-05-06T00:14:52.699Z,0
2017-05-06T00:16:00.785Z,0
2017-05-06T00:17:08.871Z,0
2017-05-06T00:18:16.960Z,0
2017-05-06T00:19:25.048Z,0
2017-05-06T00:20:33.137Z,0
2017-05-06T00:21:41.221Z,0
2017-05-06T00:22:49.307Z,0
2017-05-06T00:23:58.370Z,0
2017-05-06T00:25:05.483Z,0
2017-05-06T00:26:13.569Z,0
2017-05-06T00:27:21.657Z,0
2017-05-06T00:28:29.744Z,0
2017-05-06T00:29:37.839Z,0
2017-05-06T00:30:45.919Z,0
2017-05-06T00:31:54.005Z,0
2017-05-06T00:33:02.093Z,0
2017-05-06T00:34:10.182Z,0
2017-05-06T00:35:18.272Z,0
2017-05-06T00:36:26.355Z,0
2017-05-06T00:37:34.442Z,0
2017-05-06T00:38:42.529Z,0
2017-05-06T00:39:50.618Z,0
2017-05-06T00:40:58.703Z,0
2017-05-06T00:42:06.792Z,0
2017-05-06T00:43:14.933Z,0
2017-05-06T00:44:22.965Z,0
2017-05-06T00:45:31.052Z,0
2017-05-06T00:46:39.200Z,0
2017-05-06T00:47:47.226Z,0
2017-05-06T00:48:55.318Z,0
2017-05-06T00:50:03.401Z,0
2017-05-06T00:51:11.485Z,0
2017-05-06T00:52:19.578Z,0
2017-05-06T00:53:27.660Z,0
2017-05-06T00:54:35.746Z,0
2017-05-06T00:55:43.837Z,0
2017-05-06T00:56:51.924Z,0
2017-05-06T00:58:00.017Z,0
2017-05-06T00:59:08.096Z,0
2017-05-06T01:00:16.185Z,0
2017-05-06T01:01:24.294Z,0
2017-05-06T01:02:32.357Z,0
2017-05-06T01:03:40.443Z,0
2017-05-06T01:04:48.531Z,0
2017-05-06T01:05:56.619Z,0
2017-05-06T01:07:04.704Z,0
2017-05-06T01:08:12.816Z,0
2017-05-06T01:09:20.888Z,0
2017-05-06T01:10:28.972Z,0
2017-05-06T01:11:37.086Z,0
2017-05-06T01:12:45.152Z,0
2017-05-06T01:13:53.234Z,0
2017-05-06T01:15:01.402Z,0
2017-05-06T01:16:09.406Z,0
2017-05-06T01:17:17.491Z,0
2017-05-06T01:18:25.578Z,0
2017-05-06T01:19:33.662Z,0
2017-05-06T01:20:41.749Z,0
2017-05-06T01:21:49.843Z,0
2017-05-06T01:22:57.929Z,0
2017-05-06T01:24:06.019Z,0
2017-05-06T01:25:14.105Z,0
2017-05-06T01:26:22.191Z,0
2017-05-06T01:27:30.275Z,0
2017-05-06T01:28:38.362Z,0
2017-05-06T01:29:46.448Z,0
2017-05-06T01:30:54.535Z,0
2017-05-06T01:32:02.623Z,0
2017-05-06T01:33:10.709Z,0
2017-05-06T01:34:18.821Z,0
2017-05-06T01:35:26.891Z,0
2017-05-06T01:36:34.969Z,0
2017-05-06T01:37:43.055Z,0
2017-05-06T01:38:51.165Z,0
2017-05-06T01:39:59.229Z,0
2017-05-06T01:41:07.315Z,0
2017-05-06T01:42:15.403Z,0
2017-05-06T01:43:23.489Z,0
2017-05-06T01:44:31.575Z,0
2017-05-06T01:45:39.663Z,0
2017-05-06T01:46:47.747Z,0
2017-05-06T01:47:55.841Z,0
2017-05-06T01:49:03.925Z,0
2017-05-06T01:50:12.012Z,0
2017-05-06T01:51:20.107Z,0
2017-05-06T01:52:28.189Z,0
2017-05-06T01:53:36.271Z,0
2017-05-06T01:54:44.356Z,0
2017-05-06T01:55:52.441Z,0
2017-05-06T01:57:00.530Z,0
2017-05-06T01:58:08.617Z,0
2017-05-06T01:59:16.705Z,0
2017-05-06T02:00:24.792Z,0
2017-05-06T02:01:32.878Z,0
2017-05-06T02:02:40.970Z,0
2017-05-06T02:03:49.056Z,0
2017-05-06T02:04:57.641Z,0
2017-05-06T02:06:05.229Z,0
2017-05-06T02:07:13.307Z,0
2017-05-06T02:08:21.401Z,0
2017-05-06T02:09:29.482Z,0
2017-05-06T02:10:37.573Z,0
2017-05-06T02:11:45.654Z,0
2017-05-06T02:12:53.741Z,0
2017-05-06T02:14:01.827Z,0
2017-05-06T02:15:09.919Z,0
2017-05-06T02:16:18.000Z,0
2017-05-06T02:17:26.127Z,0
2017-05-06T02:18:34.175Z,0
2017-05-06T02:19:42.258Z,0
2017-05-06T02:20:50.348Z,0
2017-05-06T02:21:58.430Z,0
2017-05-06T02:23:06.517Z,0
2017-05-06T02:24:14.609Z,0
2017-05-06T02:25:22.696Z,0
2017-05-06T02:26:30.783Z,0
2017-05-06T02:27:38.896Z,0
2017-05-06T02:28:46.955Z,0
2017-05-06T02:29:55.047Z,0
2017-05-06T02:31:03.131Z,0
2017-05-06T02:32:11.225Z,0
2017-05-06T02:33:19.300Z,0
2017-05-06T02:34:27.389Z,0
2017-05-06T02:35:35.474Z,0
2017-05-06T02:36:43.562Z,0
2017-05-06T02:37:51.646Z,0
2017-05-06T02:38:59.731Z,0
2017-05-06T02:40:07.818Z,0
2017-05-06T02:41:15.906Z,0
2017-05-06T02:42:23.995Z,0
2017-05-06T02:43:32.077Z,0
2017-05-06T02:44:40.162Z,0
2017-05-06T02:45:48.250Z,0
2017-05-06T02:46:56.336Z,0
2017-05-06T02:48:04.422Z,0
2017-05-06T02:49:12.509Z,0
2017-05-06T02:50:20.594Z,0
2017-05-06T02:51:28.680Z,0
2017-05-06T02:52:36.766Z,0
2017-05-06T02:53:44.851Z,0
2017-05-06T02:54:52.937Z,0
2017-05-06T02:56:01.023Z,0
2017-05-06T02:57:09.110Z,0
2017-05-06T02:58:17.202Z,0
2017-05-06T02:59:25.281Z,0
2017-05-06T03:00:33.368Z,0
2017-05-06T03:01:41.453Z,0
2017-05-06T03:02:49.544Z,0
2017-05-06T03:03:57.630Z,0
2017-05-06T03:05:05.716Z,0
2017-05-06T03:06:13.805Z,0
2017-05-06T03:07:21.891Z,0
2017-05-06T03:08:29.983Z,0
2017-05-06T03:09:38.190Z,0
2017-05-06T03:10:46.155Z,0
2017-05-06T03:11:54.242Z,0
2017-05-06T03:13:02.328Z,0
2017-05-06T03:14:10.414Z,0
2017-05-06T03:15:18.499Z,0
2017-05-06T03:16:26.586Z,0
2017-05-06T03:17:34.670Z,0
2017-05-06T03:18:42.770Z,0
2017-05-06T03:19:50.857Z,0
2017-05-06T03:20:58.937Z,0
2017-05-06T03:22:07.028Z,0
2017-05-06T03:23:15.113Z,0
2017-05-06T03:24:23.203Z,0
2017-05-06T03:25:31.281Z,0
2017-05-06T03:26:39.369Z,0
2017-05-06T03:27:47.456Z,0
2017-05-06T03:28:55.550Z,0
2017-05-06T03:30:03.628Z,0
2017-05-06T03:31:11.716Z,0
2017-05-06T03:32:19.800Z,0
2017-05-06T03:33:27.915Z,0
2017-05-06T03:34:35.971Z,0
2017-05-06T03:35:44.056Z,0
2017-05-06T03:36:52.143Z,0
2017-05-06T03:38:00.229Z,0
2017-05-06T03:39:08.314Z,0
2017-05-06T03:40:16.400Z,0
2017-05-06T03:41:24.490Z,0
2017-05-06T03:42:32.572Z,0
2017-05-06T03:43:40.660Z,0
2017-05-06T03:44:48.753Z,0
2017-05-06T03:45:56.829Z,0
2017-05-06T03:47:04.915Z,0
2017-05-06T03:48:13.056Z,0
2017-05-06T03:49:21.093Z,0
2017-05-06T03:50:29.174Z,0
2017-05-06T03:51:37.284Z,0
2017-05-06T03:52:45.347Z,0
2017-05-06T03:53:53.430Z,0
2017-05-06T03:55:01.517Z,4
2017-05-06T03:56:09.607Z,0
2017-05-06T03:57:17.692Z,0
2017-05-06T03:58:25.779Z,0
2017-05-06T03:59:33.895Z,0
2017-05-06T04:00:41.951Z,0
2017-05-06T04:01:50.037Z,0
2017-05-06T04:02:58.131Z,0
2017-05-06T04:04:06.211Z,4
2017-05-06T04:05:14.293Z,4
2017-05-06T04:06:22.379Z,0
2017-05-06T04:07:30.480Z,0
2017-05-06T04:08:38.554Z,0
2017-05-06T04:09:46.640Z,0
2017-05-06T04:10:54.726Z,0
2017-05-06T04:12:02.811Z,4
2017-05-06T04:13:10.898Z,0
2017-05-06T04:14:18.995Z,0
2017-05-06T04:15:27.069Z,0
2017-05-06T04:16:35.157Z,0
2017-05-06T04:17:43.243Z,0
2017-05-06T04:18:51.334Z,4
2017-05-06T04:19:59.412Z,4
2017-05-06T04:21:07.500Z,0
2017-05-06T04:22:15.586Z,4
2017-05-06T04:23:23.677Z,4
2017-05-06T04:24:31.791Z,4
2017-05-06T04:25:39.874Z,4
2017-05-06T04:26:48.445Z,4
2017-05-06T04:27:56.020Z,4
2017-05-06T04:29:04.107Z,0
2017-05-06T04:30:12.192Z,0
2017-05-06T04:31:20.277Z,0
2017-05-06T04:32:28.363Z,4
2017-05-06T04:33:36.450Z,4
2017-05-06T04:34:44.536Z,4
2017-05-06T04:35:52.620Z,4
2017-05-06T04:37:00.731Z,4
2017-05-06T04:38:08.815Z,4
2017-05-06T04:39:16.890Z,4
2017-05-06T04:40:24.967Z,0
2017-05-06T04:41:33.060Z,4
2017-05-06T04:42:41.165Z,4
2017-05-06T04:43:49.225Z,4
2017-05-06T04:44:57.367Z,4
2017-05-06T04:46:05.395Z,4
2017-05-06T04:47:13.484Z,4
2017-05-06T04:48:21.568Z,4
2017-05-06T04:49:29.653Z,4
2017-05-06T04:50:37.738Z,8
2017-05-06T04:51:45.832Z,4
2017-05-06T04:52:53.910Z,4
2017-05-06T04:54:01.996Z,8
2017-05-06T04:55:10.081Z,4
2017-05-06T04:56:18.167Z,4
2017-05-06T04:57:26.343Z,4
2017-05-06T04:58:34.602Z,4
2017-05-06T04:59:42.425Z,4
2017-05-06T05:00:50.509Z,8
2017-05-06T05:01:58.595Z,8
2017-05-06T05:03:06.680Z,4
2017-05-06T05:04:14.766Z,8
2017-05-06T05:05:22.859Z,4
2017-05-06T05:06:31.182Z,8
2017-05-06T05:07:39.035Z,8
2017-05-06T05:08:47.107Z,8
2017-05-06T05:09:55.192Z,8
2017-05-06T05:11:03.279Z,8
2017-05-06T05:12:11.365Z,12
2017-05-06T05:13:19.479Z,12
2017-05-06T05:14:27.537Z,12
2017-05-06T05:15:35.623Z,8
2017-05-06T05:16:43.717Z,12
2017-05-06T05:17:51.815Z,12
2017-05-06T05:18:59.882Z,12
2017-05-06T05:20:07.969Z,8
2017-05-06T05:21:16.054Z,8
2017-05-06T05:22:24.228Z,8
2017-05-06T05:23:32.233Z,12
2017-05-06T05:24:40.469Z,8
2017-05-06T05:25:48.397Z,12
2017-05-06T05:26:56.482Z,12
2017-05-06T05:28:05.062Z,12
2017-05-06T05:29:12.651Z,12
2017-05-06T05:30:20.738Z,8
2017-05-06T05:31:28.833Z,8
2017-05-06T05:32:36.934Z,8
2017-05-06T05:33:45.017Z,12
2017-05-06T05:34:53.465Z,12
2017-05-06T05:36:01.174Z,12
2017-05-06T05:37:09.251Z,12
2017-05-06T05:38:17.882Z,12
2017-05-06T05:39:25.423Z,8
2017-05-06T05:40:33.508Z,12
2017-05-06T05:41:41.594Z,12
2017-05-06T05:42:49.681Z,12
2017-05-06T05:43:57.767Z,16
2017-05-06T05:45:06.421Z,16
2017-05-06T05:46:13.966Z,16
2017-05-06T05:47:22.032Z,12
2017-05-06T05:48:30.111Z,16
2017-05-06T05:49:38.207Z,16
2017-05-06T05:50:46.282Z,20
2017-05-06T05:51:54.368Z,16
2017-05-06T05:53:02.454Z,16
2017-05-06T05:54:10.541Z,16
2017-05-06T05:55:18.626Z,16
2017-05-06T05:56:26.710Z,20
2017-05-06T05:57:35.113Z,20
2017-05-06T05:58:42.885Z,20
2017-05-06T05:59:50.973Z,16
2017-05-06T06:00:59.061Z,20
2017-05-06T06:02:07.164Z,16
2017-05-06T06:03:15.231Z,16
2017-05-06T06:04:23.316Z,12
2017-05-06T06:05:31.537Z,16
2017-05-06T06:06:39.794Z,16
2017-05-06T06:07:48.127Z,12
2017-05-06T06:08:56.486Z,20
2017-05-06T06:10:03.748Z,20
2017-05-06T06:11:11.835Z,20
2017-05-06T06:12:20.487Z,32
2017-05-06T06:13:28.600Z,36
2017-05-06T06:14:36.089Z,28
2017-05-06T06:15:44.771Z,20
2017-05-06T06:16:52.261Z,20
2017-05-06T06:18:00.345Z,16
2017-05-06T06:19:08.958Z,16
2017-05-06T06:20:16.519Z,20
2017-05-06T06:21:24.611Z,20
2017-05-06T06:22:32.687Z,20
2017-05-06T06:23:40.858Z,20
2017-05-06T06:24:49.181Z,20
2017-05-06T06:25:57.005Z,20
2017-05-06T06:27:05.052Z,20
2017-05-06T06:28:13.116Z,24
2017-05-06T06:29:21.200Z,24
2017-05-06T06:30:29.319Z,24
2017-05-06T06:31:37.684Z,24
2017-05-06T06:32:45.462Z,32
2017-05-06T06:33:53.587Z,32
2017-05-06T06:35:01.949Z,32
2017-05-06T06:36:09.748Z,32
2017-05-06T06:37:17.863Z,32
2017-05-06T06:38:25.893Z,32
2017-05-06T06:39:34.004Z,32
2017-05-06T06:40:42.063Z,28
2017-05-06T06:41:50.148Z,24
2017-05-06T06:42:58.241Z,28
2017-05-06T06:44:06.324Z,24
2017-05-06T06:45:14.950Z,24
2017-05-06T06:46:22.493Z,24
2017-05-06T06:47:30.574Z,20
2017-05-06T06:48:38.671Z,24
2017-05-06T06:49:46.749Z,28
2017-05-06T06:50:54.832Z,28
2017-05-06T06:52:02.916Z,28
2017-05-06T06:53:11.003Z,24
2017-05-06T06:54:19.092Z,20
2017-05-06T06:55:27.178Z,24
2017-05-06T06:56:35.260Z,24
2017-05-06T06:57:43.347Z,24
2017-05-06T06:58:51.432Z,24
2017-05-06T06:59:59.567Z,24
2017-05-06T07:01:07.602Z,24
2017-05-06T07:02:15.687Z,24
2017-05-06T07:03:23.771Z,24
2017-05-06T07:04:31.858Z,24
2017-05-06T07:05:39.945Z,24
2017-05-06T07:06:48.036Z,24
2017-05-06T07:07:56.116Z,24
2017-05-06T07:09:04.202Z,20
2017-05-06T07:10:12.287Z,24
2017-05-06T07:11:20.373Z,28
2017-05-06T07:12:28.458Z,24
2017-05-06T07:13:36.543Z,24
2017-05-06T07:14:44.634Z,24
2017-05-06T07:15:52.722Z,28
2017-05-06T07:17:00.816Z,24
2017-05-06T07:18:08.891Z,24
2017-05-06T07:19:16.980Z,24
2017-05-06T07:20:25.062Z,24
2017-05-06T07:21:33.345Z,24
2017-05-06T07:22:41.233Z,24
2017-05-06T07:23:49.319Z,20
2017-05-06T07:24:57.408Z,24
2017-05-06T07:26:05.495Z,24
2017-05-06T07:27:13.576Z,24
2017-05-06T07:28:21.661Z,24
2017-05-06T07:29:29.747Z,24
2017-05-06T07:30:37.855Z,24
2017-05-06T07:31:45.985Z,20
2017-05-06T07:32:54.009Z,20
2017-05-06T07:34:02.134Z,20
2017-05-06T07:35:10.179Z,24
2017-05-06T07:36:18.276Z,20
2017-05-06T07:37:26.350Z,24
2017-05-06T07:38:34.435Z,24
2017-05-06T07:39:42.621Z,20
2017-05-06T07:40:50.607Z,24
2017-05-06T07:41:58.689Z,24
2017-05-06T07:43:06.784Z,20
2017-05-06T07:44:14.871Z,20
2017-05-06T07:45:22.959Z,20
2017-05-06T07:46:31.043Z,20
2017-05-06T07:47:39.128Z,20
2017-05-06T07:48:47.212Z,20
2017-05-06T07:49:55.297Z,20
2017-05-06T07:51:03.384Z,16
2017-05-06T07:52:11.470Z,20
2017-05-06T07:53:19.556Z,20
2017-05-06T07:54:27.641Z,24
2017-05-06T07:55:35.919Z,20
2017-05-06T07:56:43.810Z,20
2017-05-06T07:57:51.896Z,20
2017-05-06T07:58:59.980Z,20
2017-05-06T08:00:08.072Z,20
2017-05-06T08:01:16.158Z,20
2017-05-06T08:02:24.243Z,20
2017-05-06T08:03:32.330Z,20
2017-05-06T08:04:40.414Z,20
2017-05-06T08:05:48.500Z,24
2017-05-06T08:06:56.583Z,20
2017-05-06T08:08:04.668Z,20
2017-05-06T08:09:12.754Z,20
2017-05-06T08:10:20.853Z,24
2017-05-06T08:11:28.931Z,24
2017-05-06T08:12:37.255Z,20
2017-05-06T08:13:45.102Z,24
2017-05-06T08:14:53.186Z,20
2017-05-06T08:16:01.273Z,24
2017-05-06T08:17:09.671Z,24
2017-05-06T08:18:17.456Z,24
2017-05-06T08:19:25.536Z,20
2017-05-06T08:20:33.621Z,20
2017-05-06T08:21:41.708Z,20
2017-05-06T08:22:49.818Z,20
2017-05-06T08:23:57.880Z,20
2017-05-06T08:25:06.006Z,20
2017-05-06T08:26:14.059Z,24
2017-05-06T08:27:22.136Z,24
2017-05-06T08:28:30.223Z,24
2017-05-06T08:29:38.426Z,24
2017-05-06T08:30:46.422Z,32
2017-05-06T08:31:54.480Z,32
2017-05-06T08:33:02.898Z,36
2017-05-06T08:34:11.290Z,36
2017-05-06T08:35:18.739Z,36
2017-05-06T08:36:27.861Z,32
2017-05-06T08:37:34.909Z,32
2017-05-06T08:38:43.000Z,36
2017-05-06T08:39:51.080Z,36
2017-05-06T08:40:59.176Z,40
2017-05-06T08:42:07.888Z,44
2017-05-06T08:43:15.336Z,36
2017-05-06T08:44:23.423Z,40
2017-05-06T08:45:31.722Z,40
2017-05-06T08:46:39.595Z,36
2017-05-06T08:47:47.680Z,40
2017-05-06T08:48:55.897Z,44
2017-05-06T08:50:03.851Z,40
2017-05-06T08:51:12.098Z,36
2017-05-06T08:52:20.029Z,36
2017-05-06T08:53:28.115Z,40
2017-05-06T08:54:36.190Z,40
2017-05-06T08:55:44.277Z,40
2017-05-06T08:56:52.361Z,36
2017-05-06T08:58:00.448Z,36
2017-05-06T08:59:08.538Z,36
2017-05-06T09:00:16.624Z,36
2017-05-06T09:01:25.091Z,36
2017-05-06T09:02:32.797Z,40
2017-05-06T09:03:40.936Z,36
2017-05-06T09:04:48.969Z,36
2017-05-06T09:05:57.054Z,32
2017-05-06T09:07:05.141Z,28
2017-05-06T09:08:13.226Z,28
2017-05-06T09:09:21.963Z,28
2017-05-06T09:10:29.394Z,28
2017-05-06T09:11:37.482Z,28
2017-05-06T09:12:45.570Z,28
2017-05-06T09:13:53.665Z,28
2017-05-06T09:15:01.750Z,28
2017-05-06T09:16:09.835Z,28
2017-05-06T09:17:17.920Z,28
2017-05-06T09:18:26.005Z,32
2017-05-06T09:19:34.090Z,32
2017-05-06T09:20:42.175Z,28
2017-05-06T09:21:50.270Z,28
2017-05-06T09:22:58.346Z,32
2017-05-06T09:24:06.706Z,32
2017-05-06T09:25:15.157Z,32
2017-05-06T09:26:22.733Z,32
2017-05-06T09:27:30.694Z,32
2017-05-06T09:28:38.777Z,28
2017-05-06T09:29:46.865Z,32
2017-05-06T09:30:54.950Z,28
2017-05-06T09:32:03.082Z,32
2017-05-06T09:33:11.120Z,32
2017-05-06T09:34:19.221Z,28
2017-05-06T09:35:27.291Z,28
2017-05-06T09:36:35.378Z,28
2017-05-06T09:37:43.460Z,28
2017-05-06T09:38:51.546Z,28
2017-05-06T09:39:59.634Z,32
2017-05-06T09:41:07.723Z,32
2017-05-06T09:42:15.833Z,28
2017-05-06T09:43:23.898Z,32
2017-05-06T09:44:31.978Z,28
2017-05-06T09:45:42.126Z,24
2017-05-06T09:46:48.156Z,24
2017-05-06T09:47:56.234Z,24
2017-05-06T09:49:04.322Z,28
2017-05-06T09:50:12.405Z,24
2017-05-06T09:51:21.136Z,24
2017-05-06T09:52:28.577Z,24
2017-05-06T09:53:36.661Z,24
2017-05-06T09:54:44.760Z,24
2017-05-06T09:55:52.870Z,24
2017-05-06T09:57:00.932Z,20
2017-05-06T09:58:09.177Z,20
2017-05-06T09:59:17.102Z,24
2017-05-06T10:00:25.197Z,24
2017-05-06T10:01:33.272Z,24
2017-05-06T10:02:41.358Z,20
2017-05-06T10:03:49.444Z,20
2017-05-06T10:04:57.529Z,20
2017-05-06T10:06:05.615Z,20
2017-05-06T10:07:13.701Z,20
2017-05-06T10:08:21.786Z,16
2017-05-06T10:09:29.871Z,16
2017-05-06T10:10:37.956Z,16
2017-05-06T10:11:46.041Z,16
2017-05-06T10:12:54.125Z,16
2017-05-06T10:14:02.214Z,16
2017-05-06T10:15:10.298Z,20
2017-05-06T10:16:18.384Z,16
2017-05-06T10:17:26.469Z,20
2017-05-06T10:18:34.554Z,20
2017-05-06T10:19:42.641Z,20
2017-05-06T10:20:50.725Z,20
2017-05-06T10:21:58.810Z,24
2017-05-06T10:23:06.905Z,24
2017-05-06T10:24:14.990Z,28
2017-05-06T10:25:23.074Z,28
2017-05-06T10:26:31.153Z,28
2017-05-06T10:27:39.238Z,24
2017-05-06T10:28:47.325Z,28
2017-05-06T10:29:55.411Z,24
2017-05-06T10:31:03.495Z,28
2017-05-06T10:32:11.580Z,28
2017-05-06T10:33:19.670Z,24
2017-05-06T10:34:27.751Z,24
2017-05-06T10:35:35.836Z,24
2017-05-06T10:36:43.923Z,16
2017-05-06T10:37:52.015Z,16
2017-05-06T10:39:00.118Z,16
2017-05-06T10:40:08.180Z,12
2017-05-06T10:41:16.264Z,12
2017-05-06T10:42:24.349Z,12
2017-05-06T10:43:32.434Z,12
2017-05-06T10:44:40.521Z,12
2017-05-06T10:45:48.607Z,12
2017-05-06T10:46:56.691Z,8
2017-05-06T10:48:04.780Z,12
2017-05-06T10:49:12.862Z,8
2017-05-06T10:50:20.949Z,8
2017-05-06T10:51:29.046Z,8
2017-05-06T10:52:37.122Z,8
2017-05-06T10:53:45.209Z,12
2017-05-06T10:54:53.295Z,8
2017-05-06T10:56:01.381Z,12
2017-05-06T10:57:09.472Z,8
2017-05-06T10:58:17.554Z,8
2017-05-06T10:59:25.637Z,12
2017-05-06T11:00:33.725Z,12
2017-05-06T11:01:41.809Z,12
2017-05-06T11:02:49.921Z,16
2017-05-06T11:03:58.049Z,12
2017-05-06T11:05:06.070Z,12
2017-05-06T11:06:14.153Z,16
2017-05-06T11:07:22.238Z,16
2017-05-06T11:08:30.322Z,16
2017-05-06T11:09:38.523Z,16
2017-05-06T11:10:46.489Z,16
2017-05-06T11:11:54.581Z,16
2017-05-06T11:13:02.663Z,16
2017-05-06T11:14:10.749Z,12
2017-05-06T11:15:18.841Z,12
2017-05-06T11:16:26.925Z,16
2017-05-06T11:17:35.012Z,16
2017-05-06T11:18:43.099Z,16
2017-05-06T11:19:51.183Z,16
2017-05-06T11:20:59.267Z,20
2017-05-06T11:22:07.355Z,20
2017-05-06T11:23:15.439Z,20
2017-05-06T11:24:23.551Z,20
2017-05-06T11:25:31.611Z,20
2017-05-06T11:26:39.699Z,20
2017-05-06T11:27:47.785Z,20
2017-05-06T11:28:55.872Z,20
2017-05-06T11:30:03.955Z,24
2017-05-06T11:31:12.041Z,24
2017-05-06T11:32:20.125Z,20
2017-05-06T11:33:28.223Z,24
2017-05-06T11:34:36.298Z,28
2017-05-06T11:35:44.385Z,24
2017-05-06T11:36:52.473Z,24
2017-05-06T11:38:00.576Z,24
2017-05-06T11:39:08.642Z,20
2017-05-06T11:40:16.726Z,24
2017-05-06T11:41:25.062Z,20
2017-05-06T11:42:32.899Z,20
2017-05-06T11:43:41.011Z,20
2017-05-06T11:44:49.077Z,20
2017-05-06T11:45:57.159Z,20
2017-05-06T11:47:05.245Z,20
2017-05-06T11:48:13.330Z,20
2017-05-06T11:49:21.417Z,16
2017-05-06T11:50:29.502Z,20
2017-05-06T11:51:37.587Z,20
2017-05-06T11:52:45.673Z,16
2017-05-06T11:53:53.760Z,16
2017-05-06T11:55:01.844Z,12
2017-05-06T11:56:09.934Z,16
2017-05-06T11:57:18.017Z,12
2017-05-06T11:58:26.128Z,12
2017-05-06T11:59:34.190Z,12
2017-05-06T12:00:42.274Z,12
2017-05-06T12:01:50.360Z,16
2017-05-06T12:02:58.454Z,16
2017-05-06T12:04:06.539Z,16
2017-05-06T12:05:14.625Z,16
2017-05-06T12:06:22.709Z,16
2017-05-06T12:07:30.796Z,16
2017-05-06T12:08:38.881Z,20
2017-05-06T12:09:46.998Z,16
2017-05-06T12:10:55.060Z,20
2017-05-06T12:12:03.150Z,20
2017-05-06T12:13:11.244Z,16
2017-05-06T12:14:19.335Z,16
2017-05-06T12:15:27.416Z,16
2017-05-06T12:16:35.509Z,20
2017-05-06T12:17:43.597Z,16
2017-05-06T12:18:51.688Z,20
2017-05-06T12:19:59.766Z,16
2017-05-06T12:21:07.851Z,16
2017-05-06T12:22:15.936Z,20
2017-05-06T12:23:24.025Z,20
2017-05-06T12:24:32.111Z,20
2017-05-06T12:25:40.195Z,20
2017-05-06T12:26:48.282Z,20
2017-05-06T12:27:56.370Z,20
2017-05-06T12:29:04.455Z,20
2017-05-06T12:30:12.585Z,24
2017-05-06T12:31:20.623Z,20
2017-05-06T12:32:28.711Z,24
2017-05-06T12:33:36.804Z,20
2017-05-06T12:34:44.883Z,20
2017-05-06T12:35:52.970Z,16
2017-05-06T12:37:01.082Z,16
2017-05-06T12:38:09.144Z,12
2017-05-06T12:39:17.227Z,16
2017-05-06T12:40:27.023Z,16
2017-05-06T12:41:33.405Z,16
2017-05-06T12:42:41.493Z,16
2017-05-06T12:43:49.831Z,16
2017-05-06T12:44:57.663Z,20
2017-05-06T12:46:05.751Z,16
2017-05-06T12:47:13.883Z,20
2017-05-06T12:48:21.933Z,16
2017-05-06T12:49:30.065Z,20
2017-05-06T12:50:38.093Z,20
2017-05-06T12:51:46.195Z,20
2017-05-06T12:52:54.266Z,20
2017-05-06T12:54:02.351Z,20
2017-05-06T12:55:10.438Z,20
2017-05-06T12:56:18.524Z,20
2017-05-06T12:57:26.609Z,20
2017-05-06T12:58:34.701Z,20
2017-05-06T12:59:42.790Z,24
2017-05-06T13:00:50.869Z,20
2017-05-06T13:01:58.978Z,20
2017-05-06T13:03:07.041Z,16
2017-05-06T13:04:15.172Z,16
2017-05-06T13:05:23.212Z,16
2017-05-06T13:06:31.298Z,16
2017-05-06T13:07:39.385Z,16
2017-05-06T13:08:47.470Z,16
2017-05-06T13:09:55.557Z,16
2017-05-06T13:11:03.640Z,12
2017-05-06T13:12:11.727Z,12
2017-05-06T13:13:19.814Z,16
2017-05-06T13:14:27.903Z,12
2017-05-06T13:15:35.993Z,12
2017-05-06T13:16:44.082Z,12
2017-05-06T13:17:52.161Z,8
2017-05-06T13:19:00.243Z,8
2017-05-06T13:20:08.331Z,8
2017-05-06T13:21:16.512Z,8
2017-05-06T13:22:24.506Z,8
2017-05-06T13:23:32.592Z,4
2017-05-06T13:24:40.677Z,8
2017-05-06T13:25:48.765Z,8
2017-05-06T13:26:56.851Z,8
2017-05-06T13:28:04.935Z,4
2017-05-06T13:29:13.020Z,8
2017-05-06T13:30:21.107Z,8
2017-05-06T13:31:29.194Z,8
2017-05-06T13:32:37.281Z,8
2017-05-06T13:33:45.369Z,4
2017-05-06T13:34:53.479Z,8
2017-05-06T13:36:01.541Z,8
2017-05-06T13:37:09.630Z,8
2017-05-06T13:38:17.735Z,8
2017-05-06T13:39:25.800Z,8
2017-05-06T13:40:33.886Z,8
2017-05-06T13:41:41.973Z,8
2017-05-06T13:42:50.058Z,8
2017-05-06T13:43:58.170Z,8
2017-05-06T13:45:06.253Z,8
2017-05-06T13:46:14.366Z,8
2017-05-06T13:47:22.420Z,8
2017-05-06T13:48:30.491Z,8
2017-05-06T13:49:38.578Z,8
2017-05-06T13:50:46.687Z,8
2017-05-06T13:51:54.755Z,8
2017-05-06T13:53:02.894Z,8
2017-05-06T13:54:10.949Z,8
2017-05-06T13:55:19.024Z,8
2017-05-06T13:56:27.100Z,12
2017-05-06T13:57:35.185Z,8
2017-05-06T13:58:43.298Z,12
2017-05-06T13:59:51.359Z,12
2017-05-06T14:00:59.446Z,12
2017-05-06T14:02:07.532Z,12
2017-05-06T14:03:15.619Z,12
2017-05-06T14:04:23.705Z,12
2017-05-06T14:05:31.794Z,12
2017-05-06T14:06:39.880Z,16
2017-05-06T14:07:47.967Z,16
2017-05-06T14:08:56.052Z,16
2017-05-06T14:10:04.142Z,20
2017-05-06T14:11:12.226Z,16
2017-05-06T14:12:20.371Z,20
2017-05-06T14:13:28.400Z,16
2017-05-06T14:14:36.486Z,16
2017-05-06T14:15:44.576Z,16
2017-05-06T14:16:52.659Z,16
2017-05-06T14:18:00.746Z,16
2017-05-06T14:19:08.845Z,16
2017-05-06T14:20:17.157Z,16
2017-05-06T14:21:25.007Z,12
2017-05-06T14:22:33.103Z,12
2017-05-06T14:23:41.587Z,12
2017-05-06T14:24:49.372Z,16
2017-05-06T14:25:57.364Z,12
2017-05-06T14:27:05.476Z,12
2017-05-06T14:28:13.546Z,12
2017-05-06T14:29:21.675Z,12
2017-05-06T14:30:29.738Z,8
2017-05-06T14:31:37.811Z,8
2017-05-06T14:32:45.888Z,8
2017-05-06T14:33:54.016Z,12
2017-05-06T14:35:02.062Z,12
2017-05-06T14:36:10.149Z,12
2017-05-06T14:37:18.235Z,12
2017-05-06T14:38:26.323Z,12
2017-05-06T14:39:34.412Z,8
2017-05-06T14:40:42.499Z,12
2017-05-06T14:41:50.585Z,12
2017-05-06T14:42:58.675Z,12
2017-05-06T14:44:06.761Z,12
2017-05-06T14:45:14.895Z,12
2017-05-06T14:46:22.936Z,12
2017-05-06T14:47:31.022Z,12
2017-05-06T14:48:39.110Z,12
2017-05-06T14:49:47.206Z,12
2017-05-06T14:50:55.290Z,12
2017-05-06T14:52:03.379Z,12
2017-05-06T14:53:11.465Z,12
2017-05-06T14:54:19.551Z,12
2017-05-06T14:55:27.642Z,8
2017-05-06T14:56:35.741Z,12
2017-05-06T14:57:43.844Z,8
2017-05-06T14:58:51.941Z,12
2017-05-06T14:59:59.996Z,8
2017-05-06T15:01:08.084Z,8
2017-05-06T15:02:16.170Z,8
2017-05-06T15:03:24.574Z,8
2017-05-06T15:04:32.345Z,8
2017-05-06T15:05:40.431Z,8
2017-05-06T15:06:48.523Z,8
2017-05-06T15:07:56.607Z,8
2017-05-06T15:09:04.695Z,4
2017-05-06T15:10:12.782Z,8
2017-05-06T15:11:20.869Z,8
2017-05-06T15:12:28.960Z,8
2017-05-06T15:13:37.043Z,4
2017-05-06T15:14:45.131Z,4
2017-05-06T15:15:53.250Z,8
2017-05-06T15:17:01.314Z,8
2017-05-06T15:18:09.525Z,4
2017-05-06T15:19:17.545Z,4
2017-05-06T15:20:25.592Z,8
2017-05-06T15:21:33.658Z,4
2017-05-06T15:22:41.742Z,4
2017-05-06T15:23:49.855Z,4
2017-05-06T15:24:57.917Z,4
2017-05-06T15:26:06.033Z,4
2017-05-06T15:27:14.095Z,8
2017-05-06T15:28:22.181Z,8
2017-05-06T15:29:30.269Z,8
2017-05-06T15:30:38.356Z,4
2017-05-06T15:31:46.444Z,4
2017-05-06T15:32:54.530Z,4
2017-05-06T15:34:02.619Z,4
2017-05-06T15:35:10.704Z,4
2017-05-06T15:36:18.802Z,4
2017-05-06T15:37:26.883Z,4
2017-05-06T15:38:34.970Z,4
2017-05-06T15:39:43.058Z,4
2017-05-06T15:40:51.145Z,4
2017-05-06T15:41:59.231Z,4
2017-05-06T15:43:07.318Z,4
2017-05-06T15:44:15.409Z,0
2017-05-06T15:45:23.501Z,4
2017-05-06T15:46:31.588Z,4
2017-05-06T15:47:39.683Z,4
2017-05-06T15:48:47.762Z,4
2017-05-06T15:49:55.875Z,4
2017-05-06T15:51:03.939Z,0
2017-05-06T15:52:12.026Z,0
2017-05-06T15:53:20.117Z,4
2017-05-06T15:54:28.227Z,4
2017-05-06T15:55:36.298Z,4
2017-05-06T15:56:44.392Z,4
2017-05-06T15:57:52.479Z,4
2017-05-06T15:59:00.566Z,0
2017-05-06T16:00:08.658Z,0
2017-05-06T16:01:16.744Z,0
2017-05-06T16:02:24.831Z,0
2017-05-06T16:03:32.919Z,0
2017-05-06T16:04:41.015Z,0
2017-05-06T16:05:49.097Z,4
2017-05-06T16:06:57.181Z,4
2017-05-06T16:08:05.274Z,4
2017-05-06T16:09:13.362Z,4
2017-05-06T16:10:21.447Z,4
2017-05-06T16:11:29.539Z,4
2017-05-06T16:12:37.626Z,0
2017-05-06T16:13:45.715Z,0
2017-05-06T16:14:53.804Z,0
2017-05-06T16:16:01.892Z,0
2017-05-06T16:17:09.978Z,0
2017-05-06T16:18:18.075Z,0
2017-05-06T16:19:26.153Z,0
2017-05-06T16:20:34.242Z,0
2017-05-06T16:21:42.331Z,0
2017-05-06T16:22:50.418Z,0
2017-05-06T16:23:58.507Z,0
2017-05-06T16:25:06.595Z,0
2017-05-06T16:26:14.679Z,0
2017-05-06T16:27:22.824Z,0